sensor_id;sensor_type;location;lat;lon;timestamp;pressure;altitude;pressure_sealevel;temperature;humidity
804;BME280;25687;49.976;8.240;2023-05-27T00:00:46;101022.09;;;13.43;82.21
804;BME280;25687;49.976;8.240;2023-05-27T00:03:11;101016.94;;;13.25;84.06
804;BME280;25687;49.976;8.240;2023-05-27T00:05:36;101021.34;;;13.23;84.42
804;BME280;25687;49.976;8.240;2023-05-27T00:08:01;101020.34;;;13.26;84.22
804;BME280;25687;49.976;8.240;2023-05-27T00:10:27;101026.00;;;13.16;84.17
804;BME280;25687;49.976;8.240;2023-05-27T00:12:52;101013.75;;;13.20;84.01
804;BME280;25687;49.976;8.240;2023-05-27T00:15:18;101022.31;;;13.20;84.41
804;BME280;25687;49.976;8.240;2023-05-27T00:17:43;101026.59;;;13.21;84.47
804;BME280;25687;49.976;8.240;2023-05-27T00:20:08;101027.88;;;13.13;84.94
804;BME280;25687;49.976;8.240;2023-05-27T00:22:37;101020.13;;;13.13;84.94
804;BME280;25687;49.976;8.240;2023-05-27T00:25:03;101020.28;;;13.10;85.40
804;BME280;25687;49.976;8.240;2023-05-27T00:27:28;101022.94;;;13.08;85.44
804;BME280;25687;49.976;8.240;2023-05-27T00:29:53;101021.34;;;13.05;86.43
804;BME280;25687;49.976;8.240;2023-05-27T00:32:19;101018.84;;;13.04;86.79
804;BME280;25687;49.976;8.240;2023-05-27T00:34:44;101023.16;;;13.03;86.38
804;BME280;25687;49.976;8.240;2023-05-27T00:37:09;101024.22;;;13.17;86.67
804;BME280;25687;49.976;8.240;2023-05-27T00:39:35;101017.94;;;13.05;86.64
804;BME280;25687;49.976;8.240;2023-05-27T00:42:00;101020.75;;;13.00;87.44
804;BME280;25687;49.976;8.240;2023-05-27T00:44:26;101015.72;;;12.97;87.28
804;BME280;25687;49.976;8.240;2023-05-27T00:46:52;101019.47;;;12.91;88.30
804;BME280;25687;49.976;8.240;2023-05-27T00:49:17;101012.41;;;12.95;87.98
804;BME280;25687;49.976;8.240;2023-05-27T00:51:43;101014.69;;;13.01;88.22
804;BME280;25687;49.976;8.240;2023-05-27T00:54:08;101013.22;;;12.96;88.38
804;BME280;25687;49.976;8.240;2023-05-27T00:56:36;101015.91;;;12.94;92.43
804;BME280;25687;49.976;8.240;2023-05-27T00:59:01;101016.19;;;12.88;88.94
804;BME280;25687;49.976;8.240;2023-05-27T01:01:27;101015.59;;;12.83;89.66
804;BME280;25687;49.976;8.240;2023-05-27T01:03:53;101020.16;;;12.78;90.30
804;BME280;25687;49.976;8.240;2023-05-27T01:09:34;101021.56;;;12.66;90.69
804;BME280;25687;49.976;8.240;2023-05-27T01:14:51;101020.97;;;12.61;90.97
804;BME280;25687;49.976;8.240;2023-05-27T01:17:19;101017.53;;;12.60;90.48
804;BME280;25687;49.976;8.240;2023-05-27T01:19:45;101019.22;;;12.61;90.23
804;BME280;25687;49.976;8.240;2023-05-27T01:22:14;101016.72;;;12.59;90.62
804;BME280;25687;49.976;8.240;2023-05-27T01:24:40;101015.88;;;12.59;90.58
804;BME280;25687;49.976;8.240;2023-05-27T01:27:09;101005.69;;;12.56;90.69
804;BME280;25687;49.976;8.240;2023-05-27T01:29:38;101007.38;;;12.57;89.80
804;BME280;25687;49.976;8.240;2023-05-27T01:35:04;101010.94;;;12.54;90.62
804;BME280;25687;49.976;8.240;2023-05-27T01:37:35;101008.44;;;12.53;90.71
804;BME280;25687;49.976;8.240;2023-05-27T01:40:02;101001.44;;;12.55;90.37
804;BME280;25687;49.976;8.240;2023-05-27T01:42:32;100999.03;;;12.52;90.43
804;BME280;25687;49.976;8.240;2023-05-27T01:45:01;101003.56;;;12.47;90.83
804;BME280;25687;49.976;8.240;2023-05-27T01:47:27;101004.63;;;12.42;90.80
804;BME280;25687;49.976;8.240;2023-05-27T01:49:52;101008.19;;;12.40;91.21
804;BME280;25687;49.976;8.240;2023-05-27T01:52:18;100999.25;;;12.47;91.00
804;BME280;25687;49.976;8.240;2023-05-27T01:54:43;100998.84;;;12.37;91.08
804;BME280;25687;49.976;8.240;2023-05-27T01:57:08;101004.09;;;12.36;91.56
804;BME280;25687;49.976;8.240;2023-05-27T01:59:33;101000.44;;;12.40;91.98
804;BME280;25687;49.976;8.240;2023-05-27T02:01:59;101005.00;;;12.35;91.54
804;BME280;25687;49.976;8.240;2023-05-27T02:04:24;101000.94;;;12.29;92.33
804;BME280;25687;49.976;8.240;2023-05-27T02:06:49;100996.06;;;12.23;92.48
804;BME280;25687;49.976;8.240;2023-05-27T02:09:15;100993.66;;;12.20;92.85
804;BME280;25687;49.976;8.240;2023-05-27T02:11:40;100996.75;;;12.26;92.70
804;BME280;25687;49.976;8.240;2023-05-27T02:14:05;100985.75;;;12.23;92.68
804;BME280;25687;49.976;8.240;2023-05-27T02:16:32;100990.53;;;12.13;92.69
804;BME280;25687;49.976;8.240;2023-05-27T02:18:59;100989.84;;;12.09;93.05
804;BME280;25687;49.976;8.240;2023-05-27T02:21:26;100982.09;;;12.09;92.85
804;BME280;25687;49.976;8.240;2023-05-27T02:23:51;100991.34;;;12.14;93.70
804;BME280;25687;49.976;8.240;2023-05-27T02:26:16;100992.97;;;12.16;92.87
804;BME280;25687;49.976;8.240;2023-05-27T02:28:41;100995.19;;;12.05;93.46
804;BME280;25687;49.976;8.240;2023-05-27T02:31:07;100991.56;;;12.09;93.60
804;BME280;25687;49.976;8.240;2023-05-27T02:33:32;100990.66;;;12.10;93.62
804;BME280;25687;49.976;8.240;2023-05-27T02:35:57;100994.75;;;11.95;94.51
804;BME280;25687;49.976;8.240;2023-05-27T02:38:23;100987.09;;;11.93;94.24
804;BME280;25687;49.976;8.240;2023-05-27T02:40:48;100988.13;;;11.89;95.07
804;BME280;25687;49.976;8.240;2023-05-27T02:43:13;100992.66;;;11.84;95.14
804;BME280;25687;49.976;8.240;2023-05-27T02:45:39;100983.94;;;11.87;94.72
804;BME280;25687;49.976;8.240;2023-05-27T02:48:04;100982.00;;;11.92;95.32
804;BME280;25687;49.976;8.240;2023-05-27T02:50:30;100983.75;;;11.91;95.25
804;BME280;25687;49.976;8.240;2023-05-27T02:52:55;100981.31;;;11.88;96.13
804;BME280;25687;49.976;8.240;2023-05-27T02:55:21;100973.31;;;11.75;96.68
804;BME280;25687;49.976;8.240;2023-05-27T02:57:46;100984.16;;;11.63;97.33
804;BME280;25687;49.976;8.240;2023-05-27T03:00:12;100973.72;;;11.66;96.81
804;BME280;25687;49.976;8.240;2023-05-27T03:02:37;100977.97;;;11.67;97.49
804;BME280;25687;49.976;8.240;2023-05-27T03:05:03;100978.81;;;11.68;97.50
804;BME280;25687;49.976;8.240;2023-05-27T03:07:28;100976.63;;;11.58;97.77
804;BME280;25687;49.976;8.240;2023-05-27T03:09:57;100975.69;;;11.61;97.90
804;BME280;25687;49.976;8.240;2023-05-27T03:12:23;100969.84;;;11.57;97.43
804;BME280;25687;49.976;8.240;2023-05-27T03:14:49;100977.28;;;11.63;97.73
804;BME280;25687;49.976;8.240;2023-05-27T03:17:14;100978.81;;;11.49;97.58
804;BME280;25687;49.976;8.240;2023-05-27T03:19:39;100974.47;;;11.49;98.25
804;BME280;25687;49.976;8.240;2023-05-27T03:22:05;100975.66;;;11.42;99.34
804;BME280;25687;49.976;8.240;2023-05-27T03:24:32;100977.41;;;11.41;98.89
804;BME280;25687;49.976;8.240;2023-05-27T03:26:58;100978.22;;;11.42;99.34
804;BME280;25687;49.976;8.240;2023-05-27T03:29:24;100974.19;;;11.36;99.52
804;BME280;25687;49.976;8.240;2023-05-27T03:31:49;100974.31;;;11.33;99.03
804;BME280;25687;49.976;8.240;2023-05-27T03:34:15;100973.16;;;11.40;98.48
804;BME280;25687;49.976;8.240;2023-05-27T03:36:40;100970.66;;;11.39;98.82
804;BME280;25687;49.976;8.240;2023-05-27T03:39:11;100968.97;;;11.38;98.60
804;BME280;25687;49.976;8.240;2023-05-27T03:41:36;100969.88;;;11.37;99.25
804;BME280;25687;49.976;8.240;2023-05-27T03:44:01;100964.63;;;11.38;99.58
804;BME280;25687;49.976;8.240;2023-05-27T03:46:27;100964.00;;;11.33;99.91
804;BME280;25687;49.976;8.240;2023-05-27T03:48:52;100973.22;;;11.39;99.02
804;BME280;25687;49.976;8.240;2023-05-27T03:51:20;100964.94;;;11.51;99.09
804;BME280;25687;49.976;8.240;2023-05-27T03:53:45;100971.34;;;11.42;98.86
804;BME280;25687;49.976;8.240;2023-05-27T03:56:10;100970.69;;;11.37;99.50
804;BME280;25687;49.976;8.240;2023-05-27T03:58:36;100969.78;;;11.38;99.27
804;BME280;25687;49.976;8.240;2023-05-27T04:01:01;100976.97;;;11.51;99.15
804;BME280;25687;49.976;8.240;2023-05-27T04:03:27;100970.81;;;11.55;98.81
804;BME280;25687;49.976;8.240;2023-05-27T04:05:52;100973.00;;;11.43;98.85
804;BME280;25687;49.976;8.240;2023-05-27T04:08:17;100975.25;;;11.51;98.59
804;BME280;25687;49.976;8.240;2023-05-27T04:10:42;100976.00;;;11.53;98.55
804;BME280;25687;49.976;8.240;2023-05-27T04:13:08;100974.91;;;11.59;98.79
804;BME280;25687;49.976;8.240;2023-05-27T04:15:33;100979.22;;;11.58;99.65
804;BME280;25687;49.976;8.240;2023-05-27T04:17:59;100977.91;;;11.69;98.34
804;BME280;25687;49.976;8.240;2023-05-27T04:20:24;100974.91;;;11.59;98.63
804;BME280;25687;49.976;8.240;2023-05-27T04:22:50;100969.19;;;11.71;98.50
804;BME280;25687;49.976;8.240;2023-05-27T04:25:15;100980.50;;;11.69;98.03
804;BME280;25687;49.976;8.240;2023-05-27T04:27:40;100977.63;;;11.75;98.29
804;BME280;25687;49.976;8.240;2023-05-27T04:30:06;100983.88;;;11.69;98.79
804;BME280;25687;49.976;8.240;2023-05-27T04:32:32;100977.56;;;11.76;98.39
804;BME280;25687;49.976;8.240;2023-05-27T04:35:06;100980.00;;;11.79;97.70
804;BME280;25687;49.976;8.240;2023-05-27T04:37:35;100981.81;;;11.77;97.87
804;BME280;25687;49.976;8.240;2023-05-27T04:40:06;100984.03;;;11.85;97.32
804;BME280;25687;49.976;8.240;2023-05-27T04:42:32;100982.97;;;11.89;97.59
804;BME280;25687;49.976;8.240;2023-05-27T04:44:58;100977.69;;;11.92;97.89
804;BME280;25687;49.976;8.240;2023-05-27T04:47:25;100975.03;;;11.94;98.04
804;BME280;25687;49.976;8.240;2023-05-27T04:49:50;100975.19;;;11.91;97.73
804;BME280;25687;49.976;8.240;2023-05-27T04:52:15;100981.00;;;11.96;97.22
804;BME280;25687;49.976;8.240;2023-05-27T04:54:40;100983.13;;;12.05;97.08
804;BME280;25687;49.976;8.240;2023-05-27T04:57:06;100986.81;;;12.19;96.59
804;BME280;25687;49.976;8.240;2023-05-27T04:59:31;100991.69;;;12.25;96.43
804;BME280;25687;49.976;8.240;2023-05-27T05:02:25;100980.88;;;12.36;95.58
804;BME280;25687;49.976;8.240;2023-05-27T05:04:52;100980.78;;;12.37;95.28
804;BME280;25687;49.976;8.240;2023-05-27T05:07:17;100980.66;;;12.58;94.50
804;BME280;25687;49.976;8.240;2023-05-27T05:09:44;100975.56;;;12.56;94.18
804;BME280;25687;49.976;8.240;2023-05-27T05:12:10;100972.75;;;12.79;92.85
804;BME280;25687;49.976;8.240;2023-05-27T05:14:35;100978.47;;;12.85;91.95
804;BME280;25687;49.976;8.240;2023-05-27T05:17:00;100974.72;;;13.08;91.89
804;BME280;25687;49.976;8.240;2023-05-27T05:19:25;100973.41;;;13.17;90.41
804;BME280;25687;49.976;8.240;2023-05-27T05:21:51;100966.06;;;12.92;91.26
804;BME280;25687;49.976;8.240;2023-05-27T05:24:16;100964.53;;;13.05;90.40
804;BME280;25687;49.976;8.240;2023-05-27T05:26:41;100969.84;;;13.20;89.04
804;BME280;25687;49.976;8.240;2023-05-27T05:29:06;100973.38;;;13.35;88.50
804;BME280;25687;49.976;8.240;2023-05-27T05:31:32;100972.03;;;13.61;87.62
804;BME280;25687;49.976;8.240;2023-05-27T05:33:57;100975.06;;;13.52;85.56
804;BME280;25687;49.976;8.240;2023-05-27T05:36:22;100976.75;;;13.53;84.35
804;BME280;25687;49.976;8.240;2023-05-27T05:38:48;100979.91;;;13.58;83.26
804;BME280;25687;49.976;8.240;2023-05-27T05:41:14;100978.22;;;13.75;83.37
804;BME280;25687;49.976;8.240;2023-05-27T05:43:39;100987.63;;;13.76;82.89
804;BME280;25687;49.976;8.240;2023-05-27T05:46:04;100989.22;;;13.78;82.42
804;BME280;25687;49.976;8.240;2023-05-27T05:48:30;100985.31;;;13.87;81.86
804;BME280;25687;49.976;8.240;2023-05-27T05:50:55;100974.88;;;13.88;80.61
804;BME280;25687;49.976;8.240;2023-05-27T05:53:20;100981.13;;;14.00;80.20
804;BME280;25687;49.976;8.240;2023-05-27T05:55:45;100982.44;;;14.08;80.11
804;BME280;25687;49.976;8.240;2023-05-27T05:58:11;100982.75;;;14.17;80.30
804;BME280;25687;49.976;8.240;2023-05-27T06:00:36;100980.31;;;14.46;76.48
804;BME280;25687;49.976;8.240;2023-05-27T06:03:01;100982.44;;;14.24;78.56
804;BME280;25687;49.976;8.240;2023-05-27T06:05:27;100982.09;;;14.30;77.94
804;BME280;25687;49.976;8.240;2023-05-27T06:07:53;100981.00;;;14.64;76.75
804;BME280;25687;49.976;8.240;2023-05-27T06:10:18;100990.31;;;14.83;71.71
804;BME280;25687;49.976;8.240;2023-05-27T06:12:44;100986.25;;;14.93;72.30
804;BME280;25687;49.976;8.240;2023-05-27T06:15:09;100986.03;;;15.12;69.55
804;BME280;25687;49.976;8.240;2023-05-27T06:17:35;100987.34;;;15.20;70.04
804;BME280;25687;49.976;8.240;2023-05-27T06:20:00;100981.00;;;15.53;67.51
804;BME280;25687;49.976;8.240;2023-05-27T06:22:26;100982.09;;;15.92;63.07
804;BME280;25687;49.976;8.240;2023-05-27T06:24:51;100989.78;;;15.93;63.07
804;BME280;25687;49.976;8.240;2023-05-27T06:27:16;100990.25;;;16.27;60.83
804;BME280;25687;49.976;8.240;2023-05-27T06:29:41;100984.28;;;16.53;58.79
804;BME280;25687;49.976;8.240;2023-05-27T06:32:07;100982.56;;;17.18;55.38
804;BME280;25687;49.976;8.240;2023-05-27T06:34:32;100978.19;;;17.44;54.15
804;BME280;25687;49.976;8.240;2023-05-27T06:36:57;100976.56;;;18.29;51.71
804;BME280;25687;49.976;8.240;2023-05-27T06:39:22;100978.78;;;18.58;49.02
804;BME280;25687;49.976;8.240;2023-05-27T06:41:48;100993.72;;;17.70;49.98
804;BME280;25687;49.976;8.240;2023-05-27T06:44:13;100977.03;;;17.85;51.17
804;BME280;25687;49.976;8.240;2023-05-27T06:46:38;100984.69;;;18.48;48.51
804;BME280;25687;49.976;8.240;2023-05-27T06:49:04;100983.88;;;18.59;47.98
804;BME280;25687;49.976;8.240;2023-05-27T06:51:29;100982.69;;;18.99;46.89
804;BME280;25687;49.976;8.240;2023-05-27T06:53:55;100980.06;;;18.99;46.51
804;BME280;25687;49.976;8.240;2023-05-27T06:56:20;100973.34;;;19.42;46.12
804;BME280;25687;49.976;8.240;2023-05-27T06:58:45;100979.50;;;18.48;47.41
804;BME280;25687;49.976;8.240;2023-05-27T07:01:11;100976.69;;;18.74;47.91
804;BME280;25687;49.976;8.240;2023-05-27T07:03:36;100975.69;;;19.33;45.97
804;BME280;25687;49.976;8.240;2023-05-27T07:06:01;100976.44;;;19.24;46.21
804;BME280;25687;49.976;8.240;2023-05-27T07:08:27;100969.91;;;19.52;46.58
804;BME280;25687;49.976;8.240;2023-05-27T07:10:52;100974.28;;;19.41;45.12
804;BME280;25687;49.976;8.240;2023-05-27T07:13:17;100985.16;;;19.80;44.50
804;BME280;25687;49.976;8.240;2023-05-27T07:15:43;100982.22;;;19.50;45.00
804;BME280;25687;49.976;8.240;2023-05-27T07:18:08;100976.28;;;19.37;45.71
804;BME280;25687;49.976;8.240;2023-05-27T07:20:34;100978.34;;;20.32;43.82
804;BME280;25687;49.976;8.240;2023-05-27T07:23:00;100969.13;;;19.73;43.88
804;BME280;25687;49.976;8.240;2023-05-27T07:25:25;100968.16;;;21.24;41.74
804;BME280;25687;49.976;8.240;2023-05-27T07:27:51;100967.09;;;22.16;40.33
804;BME280;25687;49.976;8.240;2023-05-27T07:30:17;100965.03;;;24.79;36.00
804;BME280;25687;49.976;8.240;2023-05-27T07:32:42;100962.44;;;23.34;36.19
804;BME280;25687;49.976;8.240;2023-05-27T07:35:08;100966.28;;;22.25;38.29
804;BME280;25687;49.976;8.240;2023-05-27T07:37:33;100964.41;;;21.17;39.11
804;BME280;25687;49.976;8.240;2023-05-27T07:39:58;100957.94;;;20.90;39.96
804;BME280;25687;49.976;8.240;2023-05-27T07:42:23;100953.56;;;21.82;39.09
804;BME280;25687;49.976;8.240;2023-05-27T07:44:49;100953.53;;;22.70;37.21
804;BME280;25687;49.976;8.240;2023-05-27T07:47:15;100958.31;;;22.84;37.91
804;BME280;25687;49.976;8.240;2023-05-27T07:49:40;100966.19;;;23.96;35.34
804;BME280;25687;49.976;8.240;2023-05-27T07:52:05;100957.81;;;22.61;36.83
804;BME280;25687;49.976;8.240;2023-05-27T07:54:31;100960.50;;;22.89;36.95
804;BME280;25687;49.976;8.240;2023-05-27T07:56:56;100966.81;;;22.29;37.72
804;BME280;25687;49.976;8.240;2023-05-27T07:59:23;100954.41;;;21.92;39.04
804;BME280;25687;49.976;8.240;2023-05-27T08:01:48;100966.16;;;22.47;37.48
804;BME280;25687;49.976;8.240;2023-05-27T08:04:13;100960.97;;;21.57;39.42
804;BME280;25687;49.976;8.240;2023-05-27T08:06:39;100962.75;;;20.85;41.25
804;BME280;25687;49.976;8.240;2023-05-27T08:09:04;100959.69;;;21.51;39.53
804;BME280;25687;49.976;8.240;2023-05-27T08:11:29;100956.63;;;21.87;38.90
804;BME280;25687;49.976;8.240;2023-05-27T08:13:56;100949.16;;;22.51;38.48
804;BME280;25687;49.976;8.240;2023-05-27T08:16:21;100947.53;;;22.30;38.14
804;BME280;25687;49.976;8.240;2023-05-27T08:18:47;100944.38;;;23.49;37.02
804;BME280;25687;49.976;8.240;2023-05-27T08:21:12;100950.31;;;23.24;36.97
804;BME280;25687;49.976;8.240;2023-05-27T08:23:37;100944.34;;;22.36;38.00
804;BME280;25687;49.976;8.240;2023-05-27T08:26:02;100940.06;;;21.76;39.66
804;BME280;25687;49.976;8.240;2023-05-27T08:28:28;100932.75;;;22.29;39.78
804;BME280;25687;49.976;8.240;2023-05-27T08:30:53;100930.38;;;22.65;38.23
804;BME280;25687;49.976;8.240;2023-05-27T08:33:18;100923.13;;;23.43;37.03
804;BME280;25687;49.976;8.240;2023-05-27T08:35:44;100925.41;;;23.74;38.13
804;BME280;25687;49.976;8.240;2023-05-27T08:38:10;100918.69;;;22.40;38.18
804;BME280;25687;49.976;8.240;2023-05-27T08:40:35;100908.88;;;22.52;38.82
804;BME280;25687;49.976;8.240;2023-05-27T08:43:02;100911.13;;;22.75;38.76
804;BME280;25687;49.976;8.240;2023-05-27T08:45:27;100903.03;;;22.96;37.98
804;BME280;25687;49.976;8.240;2023-05-27T08:47:53;100913.44;;;23.15;37.90
804;BME280;25687;49.976;8.240;2023-05-27T08:50:19;100908.94;;;23.08;38.30
804;BME280;25687;49.976;8.240;2023-05-27T08:52:46;100901.16;;;23.80;36.74
804;BME280;25687;49.976;8.240;2023-05-27T08:55:16;100906.19;;;23.91;37.44
804;BME280;25687;49.976;8.240;2023-05-27T08:57:49;100899.38;;;25.12;35.91
804;BME280;25687;49.976;8.240;2023-05-27T09:00:15;100911.81;;;23.78;36.75
804;BME280;25687;49.976;8.240;2023-05-27T09:02:41;100906.31;;;24.26;37.01
804;BME280;25687;49.976;8.240;2023-05-27T09:05:08;100896.88;;;25.61;34.27
804;BME280;25687;49.976;8.240;2023-05-27T09:07:36;100902.00;;;23.80;36.23
804;BME280;25687;49.976;8.240;2023-05-27T09:10:01;100900.94;;;23.55;37.83
804;BME280;25687;49.976;8.240;2023-05-27T09:12:27;100893.84;;;23.65;36.45
804;BME280;25687;49.976;8.240;2023-05-27T09:14:53;100893.97;;;23.46;37.71
804;BME280;25687;49.976;8.240;2023-05-27T09:17:25;100888.06;;;23.98;37.45
804;BME280;25687;49.976;8.240;2023-05-27T09:19:51;100883.69;;;24.94;36.75
804;BME280;25687;49.976;8.240;2023-05-27T09:22:29;100886.00;;;26.22;33.80
804;BME280;25687;49.976;8.240;2023-05-27T09:24:55;100883.19;;;24.64;35.41
804;BME280;25687;49.976;8.240;2023-05-27T09:27:27;100888.56;;;23.65;36.59
804;BME280;25687;49.976;8.240;2023-05-27T09:29:54;100871.50;;;24.32;36.56
804;BME280;25687;49.976;8.240;2023-05-27T09:32:26;100886.09;;;23.46;37.51
804;BME280;25687;49.976;8.240;2023-05-27T09:34:53;100880.00;;;23.63;36.61
804;BME280;25687;49.976;8.240;2023-05-27T09:37:19;100868.78;;;24.15;37.12
804;BME280;25687;49.976;8.240;2023-05-27T09:39:46;100876.34;;;24.18;36.80
804;BME280;25687;49.976;8.240;2023-05-27T09:42:11;100883.00;;;23.50;37.07
804;BME280;25687;49.976;8.240;2023-05-27T09:44:38;100876.41;;;23.28;38.13
804;BME280;25687;49.976;8.240;2023-05-27T09:47:07;100871.22;;;23.18;38.61
804;BME280;25687;49.976;8.240;2023-05-27T09:49:33;100864.53;;;23.78;38.28
804;BME280;25687;49.976;8.240;2023-05-27T09:52:00;100857.50;;;26.01;35.62
804;BME280;25687;49.976;8.240;2023-05-27T09:54:26;100867.06;;;26.67;32.76
804;BME280;25687;49.976;8.240;2023-05-27T09:56:52;100857.00;;;24.54;35.82
804;BME280;25687;49.976;8.240;2023-05-27T09:59:18;100861.13;;;24.57;35.98
804;BME280;25687;49.976;8.240;2023-05-27T10:01:45;100851.09;;;24.87;35.70
804;BME280;25687;49.976;8.240;2023-05-27T10:04:14;100849.56;;;25.27;34.72
804;BME280;25687;49.976;8.240;2023-05-27T10:06:40;100846.81;;;25.37;35.14
804;BME280;25687;49.976;8.240;2023-05-27T10:09:06;100848.88;;;24.65;35.94
804;BME280;25687;49.976;8.240;2023-05-27T10:11:32;100841.63;;;24.07;37.22
804;BME280;25687;49.976;8.240;2023-05-27T10:14:01;100839.88;;;25.93;34.31
804;BME280;25687;49.976;8.240;2023-05-27T10:16:27;100846.59;;;25.22;35.04
804;BME280;25687;49.976;8.240;2023-05-27T10:18:56;100844.66;;;25.73;34.46
804;BME280;25687;49.976;8.240;2023-05-27T10:21:23;100835.44;;;25.77;34.25
804;BME280;25687;49.976;8.240;2023-05-27T10:23:58;100843.50;;;26.65;33.04
804;BME280;25687;49.976;8.240;2023-05-27T10:26:38;100837.00;;;24.96;35.33
804;BME280;25687;49.976;8.240;2023-05-27T10:29:11;100826.84;;;25.09;35.19
804;BME280;25687;49.976;8.240;2023-05-27T10:31:48;100834.97;;;25.49;35.04
804;BME280;25687;49.976;8.240;2023-05-27T10:34:14;100819.72;;;24.93;35.27
804;BME280;25687;49.976;8.240;2023-05-27T10:36:40;100823.53;;;25.24;35.68
804;BME280;25687;49.976;8.240;2023-05-27T10:44:05;100810.72;;;22.17;41.50
804;BME280;25687;49.976;8.240;2023-05-27T10:46:38;100817.00;;;21.47;42.06
804;BME280;25687;49.976;8.240;2023-05-27T10:49:13;100812.28;;;21.51;44.27
804;BME280;25687;49.976;8.240;2023-05-27T10:51:39;100799.31;;;21.98;43.31
804;BME280;25687;49.976;8.240;2023-05-27T10:54:05;100816.44;;;21.73;43.13
804;BME280;25687;49.976;8.240;2023-05-27T10:56:32;100802.50;;;21.14;44.18
804;BME280;25687;49.976;8.240;2023-05-27T10:59:00;100798.09;;;21.34;44.96
804;BME280;25687;49.976;8.240;2023-05-27T11:01:28;100801.41;;;21.36;44.77
804;BME280;25687;49.976;8.240;2023-05-27T11:03:57;100789.13;;;21.17;44.84
804;BME280;25687;49.976;8.240;2023-05-27T11:06:23;100778.50;;;21.08;44.74
804;BME280;25687;49.976;8.240;2023-05-27T11:08:49;100776.16;;;20.95;45.59
804;BME280;25687;49.976;8.240;2023-05-27T11:11:15;100774.13;;;21.09;47.90
804;BME280;25687;49.976;8.240;2023-05-27T11:16:07;100770.81;;;21.07;46.42
804;BME280;25687;49.976;8.240;2023-05-27T11:18:43;100767.25;;;21.08;47.35
804;BME280;25687;49.976;8.240;2023-05-27T11:21:10;100768.06;;;21.28;45.37
804;BME280;25687;49.976;8.240;2023-05-27T11:26:01;100753.03;;;20.91;45.58
804;BME280;25687;49.976;8.240;2023-05-27T11:28:26;100760.34;;;20.97;46.42
804;BME280;25687;49.976;8.240;2023-05-27T11:30:58;100746.03;;;21.21;46.48
804;BME280;25687;49.976;8.240;2023-05-27T11:33:31;100741.91;;;21.38;44.97
804;BME280;25687;49.976;8.240;2023-05-27T11:36:04;100735.44;;;21.32;44.63
804;BME280;25687;49.976;8.240;2023-05-27T11:38:30;100737.78;;;21.45;46.20
804;BME280;25687;49.976;8.240;2023-05-27T11:41:06;100741.09;;;21.37;44.45
804;BME280;25687;49.976;8.240;2023-05-27T11:43:32;100737.88;;;21.73;44.79
804;BME280;25687;49.976;8.240;2023-05-27T11:46:03;100733.50;;;21.44;43.36
804;BME280;25687;49.976;8.240;2023-05-27T11:48:28;100729.09;;;21.44;44.62
804;BME280;25687;49.976;8.240;2023-05-27T11:50:54;100739.84;;;21.41;42.80
804;BME280;25687;49.976;8.240;2023-05-27T11:53:19;100726.50;;;21.25;44.65
804;BME280;25687;49.976;8.240;2023-05-27T11:55:45;100719.31;;;21.37;44.23
804;BME280;25687;49.976;8.240;2023-05-27T11:58:10;100721.69;;;21.59;43.22
804;BME280;25687;49.976;8.240;2023-05-27T12:00:36;100719.56;;;21.73;43.61
804;BME280;25687;49.976;8.240;2023-05-27T12:03:01;100712.03;;;22.07;42.35
804;BME280;25687;49.976;8.240;2023-05-27T12:05:26;100723.16;;;22.19;42.95
804;BME280;25687;49.976;8.240;2023-05-27T12:07:51;100721.97;;;22.04;42.58
804;BME280;25687;49.976;8.240;2023-05-27T12:10:17;100714.84;;;21.86;42.39
804;BME280;25687;49.976;8.240;2023-05-27T12:12:42;100696.84;;;21.73;41.92
804;BME280;25687;49.976;8.240;2023-05-27T12:15:09;100704.78;;;21.82;42.70
804;BME280;25687;49.976;8.240;2023-05-27T12:17:34;100700.97;;;21.76;42.46
804;BME280;25687;49.976;8.240;2023-05-27T12:19:59;100694.31;;;21.82;42.44
804;BME280;25687;49.976;8.240;2023-05-27T12:22:25;100695.81;;;21.84;42.27
804;BME280;25687;49.976;8.240;2023-05-27T12:24:50;100686.81;;;21.97;41.67
804;BME280;25687;49.976;8.240;2023-05-27T12:27:18;100680.38;;;21.91;41.67
804;BME280;25687;49.976;8.240;2023-05-27T12:29:43;100678.94;;;22.06;42.34
804;BME280;25687;49.976;8.240;2023-05-27T12:32:08;100673.81;;;22.15;42.19
804;BME280;25687;49.976;8.240;2023-05-27T12:34:34;100671.94;;;22.25;41.86
804;BME280;25687;49.976;8.240;2023-05-27T12:36:59;100673.50;;;21.90;41.76
804;BME280;25687;49.976;8.240;2023-05-27T12:39:25;100677.06;;;21.89;41.19
804;BME280;25687;49.976;8.240;2023-05-27T12:41:50;100655.47;;;21.87;41.55
804;BME280;25687;49.976;8.240;2023-05-27T12:44:15;100665.22;;;21.95;42.73
804;BME280;25687;49.976;8.240;2023-05-27T12:46:41;100663.22;;;22.06;41.27
804;BME280;25687;49.976;8.240;2023-05-27T12:49:07;100665.56;;;22.09;41.41
804;BME280;25687;49.976;8.240;2023-05-27T12:51:33;100656.38;;;22.23;41.85
804;BME280;25687;49.976;8.240;2023-05-27T12:53:58;100661.78;;;22.22;40.46
804;BME280;25687;49.976;8.240;2023-05-27T12:56:23;100649.72;;;22.01;41.50
804;BME280;25687;49.976;8.240;2023-05-27T12:58:49;100641.78;;;22.21;41.86
804;BME280;25687;49.976;8.240;2023-05-27T13:01:14;100637.56;;;22.38;41.53
804;BME280;25687;49.976;8.240;2023-05-27T13:03:40;100644.00;;;22.44;41.66
804;BME280;25687;49.976;8.240;2023-05-27T13:06:06;100641.25;;;22.45;41.17
804;BME280;25687;49.976;8.240;2023-05-27T13:08:31;100634.81;;;22.58;41.19
804;BME280;25687;49.976;8.240;2023-05-27T13:10:56;100630.75;;;22.63;40.13
804;BME280;25687;49.976;8.240;2023-05-27T13:13:22;100630.53;;;22.75;39.94
804;BME280;25687;49.976;8.240;2023-05-27T13:15:47;100631.53;;;22.55;39.37
804;BME280;25687;49.976;8.240;2023-05-27T13:18:13;100622.66;;;22.38;40.23
804;BME280;25687;49.976;8.240;2023-05-27T13:20:39;100637.13;;;22.43;39.83
804;BME280;25687;49.976;8.240;2023-05-27T13:23:04;100626.56;;;22.52;39.80